sensor_id;sensor_type;location;lat;lon;timestamp;temperature;humidity
15217;DHT22;7711;46.634;14.318;2023-07-31T00:00:18;17.20;1.00
15217;DHT22;7711;46.634;14.318;2023-07-31T00:02:45;17.20;99.90
15217;DHT22;7711;46.634;14.318;2023-07-31T00:05:12;17.20;99.90
15217;DHT22;7711;46.634;14.318;2023-07-31T00:07:39;17.20;78.30
15217;DHT22;7711;46.634;14.318;2023-07-31T00:10:07;17.10;99.90
15217;DHT22;7711;46.634;14.318;2023-07-31T00:12:35;17.10;1.00
15217;DHT22;7711;46.634;14.318;2023-07-31T00:15:03;17.00;1.00
15217;DHT22;7711;46.634;14.318;2023-07-31T00:17:30;17.00;1.00
15217;DHT22;7711;46.634;14.318;2023-07-31T00:19:57;17.00;1.00
15217;DHT22;7711;46.634;14.318;2023-07-31T00:22:23;17.00;1.00
15217;DHT22;7711;46.634;14.318;2023-07-31T00:24:51;16.90;1.00
15217;DHT22;7711;46.634;14.318;2023-07-31T00:27:17;16.90;1.00
15217;DHT22;7711;46.634;14.318;2023-07-31T00:29:46;16.90;1.00
15217;DHT22;7711;46.634;14.318;2023-07-31T00:32:13;16.90;1.00
15217;DHT22;7711;46.634;14.318;2023-07-31T00:34:40;16.90;99.90
15217;DHT22;7711;46.634;14.318;2023-07-31T00:37:06;16.80;99.90
15217;DHT22;7711;46.634;14.318;2023-07-31T00:39:34;16.80;99.90
15217;DHT22;7711;46.634;14.318;2023-07-31T00:42:01;16.80;99.90
15217;DHT22;7711;46.634;14.318;2023-07-31T00:44:28;16.80;99.90
15217;DHT22;7711;46.634;14.318;2023-07-31T00:46:56;16.70;99.90
15217;DHT22;7711;46.634;14.318;2023-07-31T00:49:25;16.70;99.90
15217;DHT22;7711;46.634;14.318;2023-07-31T00:51:53;16.70;99.90
15217;DHT22;7711;46.634;14.318;2023-07-31T00:54:22;16.70;99.90
15217;DHT22;7711;46.634;14.318;2023-07-31T00:56:50;16.60;99.90
15217;DHT22;7711;46.634;14.318;2023-07-31T00:59:19;16.50;1.00
15217;DHT22;7711;46.634;14.318;2023-07-31T01:01:46;16.50;99.90
15217;DHT22;7711;46.634;14.318;2023-07-31T01:04:15;16.40;1.00
15217;DHT22;7711;46.634;14.318;2023-07-31T01:06:48;16.40;1.00
15217;DHT22;7711;46.634;14.318;2023-07-31T01:09:22;16.50;1.00
15217;DHT22;7711;46.634;14.318;2023-07-31T01:11:57;16.40;93.90
15217;DHT22;7711;46.634;14.318;2023-07-31T01:14:26;16.30;99.90
15217;DHT22;7711;46.634;14.318;2023-07-31T01:16:53;16.30;1.00
15217;DHT22;7711;46.634;14.318;2023-07-31T01:19:22;16.20;1.00
15217;DHT22;7711;46.634;14.318;2023-07-31T01:22:04;16.20;1.00
15217;DHT22;7711;46.634;14.318;2023-07-31T01:24:43;16.20;1.00
15217;DHT22;7711;46.634;14.318;2023-07-31T01:27:21;16.30;1.00
15217;DHT22;7711;46.634;14.318;2023-07-31T01:29:52;16.30;99.90
15217;DHT22;7711;46.634;14.318;2023-07-31T01:32:23;16.30;99.90
15217;DHT22;7711;46.634;14.318;2023-07-31T01:34:51;16.40;99.90
15217;DHT22;7711;46.634;14.318;2023-07-31T01:37:19;16.30;78.90
15217;DHT22;7711;46.634;14.318;2023-07-31T01:39:45;16.40;99.90
15217;DHT22;7711;46.634;14.318;2023-07-31T01:42:12;16.40;99.90
15217;DHT22;7711;46.634;14.318;2023-07-31T01:44:41;16.50;99.90
15217;DHT22;7711;46.634;14.318;2023-07-31T01:47:08;16.50;1.00
15217;DHT22;7711;46.634;14.318;2023-07-31T01:49:35;16.60;99.80
15217;DHT22;7711;46.634;14.318;2023-07-31T01:52:02;16.60;99.90
15217;DHT22;7711;46.634;14.318;2023-07-31T01:54:29;16.60;99.90
15217;DHT22;7711;46.634;14.318;2023-07-31T01:56:55;16.60;99.90
15217;DHT22;7711;46.634;14.318;2023-07-31T01:59:22;16.60;99.90
15217;DHT22;7711;46.634;14.318;2023-07-31T02:01:51;16.60;99.90
15217;DHT22;7711;46.634;14.318;2023-07-31T02:04:18;16.70;99.90
15217;DHT22;7711;46.634;14.318;2023-07-31T02:06:45;16.80;1.00
15217;DHT22;7711;46.634;14.318;2023-07-31T02:09:11;16.70;1.00
15217;DHT22;7711;46.634;14.318;2023-07-31T02:11:38;16.60;1.00
15217;DHT22;7711;46.634;14.318;2023-07-31T02:14:05;16.60;1.00
15217;DHT22;7711;46.634;14.318;2023-07-31T02:16:32;16.60;99.90
15217;DHT22;7711;46.634;14.318;2023-07-31T02:19:00;16.50;99.90
15217;DHT22;7711;46.634;14.318;2023-07-31T02:21:27;16.50;1.00
15217;DHT22;7711;46.634;14.318;2023-07-31T02:23:54;16.40;1.00
15217;DHT22;7711;46.634;14.318;2023-07-31T02:26:21;16.40;1.00
15217;DHT22;7711;46.634;14.318;2023-07-31T02:28:48;16.40;1.00
15217;DHT22;7711;46.634;14.318;2023-07-31T02:31:15;16.40;1.00
15217;DHT22;7711;46.634;14.318;2023-07-31T02:33:42;16.40;1.00
15217;DHT22;7711;46.634;14.318;2023-07-31T02:36:10;16.40;1.00
15217;DHT22;7711;46.634;14.318;2023-07-31T02:38:37;16.40;1.00
15217;DHT22;7711;46.634;14.318;2023-07-31T02:41:04;16.40;1.00
15217;DHT22;7711;46.634;14.318;2023-07-31T02:43:31;16.40;1.00
15217;DHT22;7711;46.634;14.318;2023-07-31T02:45:59;16.40;1.00
15217;DHT22;7711;46.634;14.318;2023-07-31T02:48:26;16.40;1.00
15217;DHT22;7711;46.634;14.318;2023-07-31T02:50:53;16.40;1.00
15217;DHT22;7711;46.634;14.318;2023-07-31T02:53:22;16.40;1.00
15217;DHT22;7711;46.634;14.318;2023-07-31T02:55:49;16.30;1.00
15217;DHT22;7711;46.634;14.318;2023-07-31T02:58:15;16.40;1.00
15217;DHT22;7711;46.634;14.318;2023-07-31T03:00:43;16.40;1.00
15217;DHT22;7711;46.634;14.318;2023-07-31T03:03:10;16.40;1.00
15217;DHT22;7711;46.634;14.318;2023-07-31T03:05:37;16.30;1.00
15217;DHT22;7711;46.634;14.318;2023-07-31T03:08:04;16.40;1.00
15217;DHT22;7711;46.634;14.318;2023-07-31T03:10:32;16.40;1.00
15217;DHT22;7711;46.634;14.318;2023-07-31T03:12:59;16.30;1.00
15217;DHT22;7711;46.634;14.318;2023-07-31T03:15:26;16.20;1.00
15217;DHT22;7711;46.634;14.318;2023-07-31T03:17:53;16.20;1.00
15217;DHT22;7711;46.634;14.318;2023-07-31T03:20:20;16.10;1.00
15217;DHT22;7711;46.634;14.318;2023-07-31T03:22:47;16.00;1.00
15217;DHT22;7711;46.634;14.318;2023-07-31T03:25:14;16.00;1.00
15217;DHT22;7711;46.634;14.318;2023-07-31T03:27:42;16.00;1.00
15217;DHT22;7711;46.634;14.318;2023-07-31T03:30:10;16.00;1.00
15217;DHT22;7711;46.634;14.318;2023-07-31T03:32:37;16.00;1.00
15217;DHT22;7711;46.634;14.318;2023-07-31T03:35:04;16.00;1.00
15217;DHT22;7711;46.634;14.318;2023-07-31T03:37:32;16.00;1.00
15217;DHT22;7711;46.634;14.318;2023-07-31T03:39:59;15.90;1.00
15217;DHT22;7711;46.634;14.318;2023-07-31T03:42:25;15.90;1.00
15217;DHT22;7711;46.634;14.318;2023-07-31T03:44:54;15.80;1.00
15217;DHT22;7711;46.634;14.318;2023-07-31T03:47:21;15.80;1.00
15217;DHT22;7711;46.634;14.318;2023-07-31T03:49:48;15.70;1.00
15217;DHT22;7711;46.634;14.318;2023-07-31T03:52:14;15.70;1.00
15217;DHT22;7711;46.634;14.318;2023-07-31T03:54:41;15.70;1.00
15217;DHT22;7711;46.634;14.318;2023-07-31T03:57:10;15.70;1.00
15217;DHT22;7711;46.634;14.318;2023-07-31T03:59:37;15.80;1.00
15217;DHT22;7711;46.634;14.318;2023-07-31T04:02:06;15.80;1.00
15217;DHT22;7711;46.634;14.318;2023-07-31T04:04:33;15.80;1.00
15217;DHT22;7711;46.634;14.318;2023-07-31T04:07:00;15.80;1.00
15217;DHT22;7711;46.634;14.318;2023-07-31T04:09:27;15.80;1.00
15217;DHT22;7711;46.634;14.318;2023-07-31T04:11:54;15.90;1.00
15217;DHT22;7711;46.634;14.318;2023-07-31T04:14:20;15.90;1.00
15217;DHT22;7711;46.634;14.318;2023-07-31T04:16:47;16.00;1.00
15217;DHT22;7711;46.634;14.318;2023-07-31T04:19:16;16.00;1.00
15217;DHT22;7711;46.634;14.318;2023-07-31T04:21:43;16.00;1.00
15217;DHT22;7711;46.634;14.318;2023-07-31T04:24:10;16.00;1.00
15217;DHT22;7711;46.634;14.318;2023-07-31T04:26:37;16.10;1.00
15217;DHT22;7711;46.634;14.318;2023-07-31T04:29:03;16.10;1.00
15217;DHT22;7711;46.634;14.318;2023-07-31T04:31:31;16.10;1.00
15217;DHT22;7711;46.634;14.318;2023-07-31T04:33:57;16.10;1.00
15217;DHT22;7711;46.634;14.318;2023-07-31T04:36:26;16.20;1.00
15217;DHT22;7711;46.634;14.318;2023-07-31T04:38:53;16.20;1.00
15217;DHT22;7711;46.634;14.318;2023-07-31T04:41:19;16.30;1.00
15217;DHT22;7711;46.634;14.318;2023-07-31T04:43:47;16.30;1.00
15217;DHT22;7711;46.634;14.318;2023-07-31T04:46:14;16.40;1.00
15217;DHT22;7711;46.634;14.318;2023-07-31T04:48:42;16.40;1.00
15217;DHT22;7711;46.634;14.318;2023-07-31T04:51:09;16.50;1.00
15217;DHT22;7711;46.634;14.318;2023-07-31T04:53:37;16.50;1.00
15217;DHT22;7711;46.634;14.318;2023-07-31T04:56:04;16.40;1.00
15217;DHT22;7711;46.634;14.318;2023-07-31T04:58:31;16.50;1.00
15217;DHT22;7711;46.634;14.318;2023-07-31T05:00:58;16.50;1.00
15217;DHT22;7711;46.634;14.318;2023-07-31T05:03:25;16.40;1.00
15217;DHT22;7711;46.634;14.318;2023-07-31T05:05:52;16.40;1.00
15217;DHT22;7711;46.634;14.318;2023-07-31T05:08:19;16.40;1.00
15217;DHT22;7711;46.634;14.318;2023-07-31T05:10:47;16.40;1.00
15217;DHT22;7711;46.634;14.318;2023-07-31T05:13:14;16.40;1.00
15217;DHT22;7711;46.634;14.318;2023-07-31T05:15:41;16.40;1.00
15217;DHT22;7711;46.634;14.318;2023-07-31T05:18:08;16.40;1.00
15217;DHT22;7711;46.634;14.318;2023-07-31T05:20:35;16.50;1.00
15217;DHT22;7711;46.634;14.318;2023-07-31T05:23:02;16.50;1.00
15217;DHT22;7711;46.634;14.318;2023-07-31T05:25:28;16.60;1.00
15217;DHT22;7711;46.634;14.318;2023-07-31T05:27:57;16.60;1.00
15217;DHT22;7711;46.634;14.318;2023-07-31T05:30:24;16.70;1.00
15217;DHT22;7711;46.634;14.318;2023-07-31T05:32:50;16.70;1.00
15217;DHT22;7711;46.634;14.318;2023-07-31T05:35:17;16.80;1.00
15217;DHT22;7711;46.634;14.318;2023-07-31T05:37:44;17.00;1.00
15217;DHT22;7711;46.634;14.318;2023-07-31T05:40:11;17.10;1.00
15217;DHT22;7711;46.634;14.318;2023-07-31T05:42:38;17.30;1.00
15217;DHT22;7711;46.634;14.318;2023-07-31T05:45:08;17.40;1.00
15217;DHT22;7711;46.634;14.318;2023-07-31T05:47:35;17.40;1.00
15217;DHT22;7711;46.634;14.318;2023-07-31T05:50:02;17.30;1.00
15217;DHT22;7711;46.634;14.318;2023-07-31T05:52:29;17.40;1.00
15217;DHT22;7711;46.634;14.318;2023-07-31T05:54:56;17.30;1.00
15217;DHT22;7711;46.634;14.318;2023-07-31T05:57:22;17.20;1.00
15217;DHT22;7711;46.634;14.318;2023-07-31T05:59:49;17.10;1.00
15217;DHT22;7711;46.634;14.318;2023-07-31T06:02:18;17.30;1.00
15217;DHT22;7711;46.634;14.318;2023-07-31T06:04:45;17.30;1.00
15217;DHT22;7711;46.634;14.318;2023-07-31T06:07:11;17.60;1.00
15217;DHT22;7711;46.634;14.318;2023-07-31T06:09:38;17.80;1.00
15217;DHT22;7711;46.634;14.318;2023-07-31T06:12:06;17.80;1.00
15217;DHT22;7711;46.634;14.318;2023-07-31T06:14:33;17.80;1.00
15217;DHT22;7711;46.634;14.318;2023-07-31T06:17:00;17.90;1.00
15217;DHT22;7711;46.634;14.318;2023-07-31T06:19:28;18.00;1.00
15217;DHT22;7711;46.634;14.318;2023-07-31T06:21:55;17.90;1.00
15217;DHT22;7711;46.634;14.318;2023-07-31T06:24:22;18.00;1.00
15217;DHT22;7711;46.634;14.318;2023-07-31T06:26:49;18.20;1.00
15217;DHT22;7711;46.634;14.318;2023-07-31T06:29:16;18.50;1.00
15217;DHT22;7711;46.634;14.318;2023-07-31T06:31:43;18.70;1.00
15217;DHT22;7711;46.634;14.318;2023-07-31T06:34:10;18.70;1.00
15217;DHT22;7711;46.634;14.318;2023-07-31T06:36:38;18.80;1.00
15217;DHT22;7711;46.634;14.318;2023-07-31T06:39:05;18.90;1.00
15217;DHT22;7711;46.634;14.318;2023-07-31T06:41:32;19.10;99.90
15217;DHT22;7711;46.634;14.318;2023-07-31T06:43:59;19.40;1.00
15217;DHT22;7711;46.634;14.318;2023-07-31T06:46:26;19.50;1.00
15217;DHT22;7711;46.634;14.318;2023-07-31T06:48:53;19.50;1.00
15217;DHT22;7711;46.634;14.318;2023-07-31T06:51:20;19.70;99.90
15217;DHT22;7711;46.634;14.318;2023-07-31T06:53:48;19.90;99.90
15217;DHT22;7711;46.634;14.318;2023-07-31T06:56:15;19.80;99.90
15217;DHT22;7711;46.634;14.318;2023-07-31T06:58:42;19.70;99.90
15217;DHT22;7711;46.634;14.318;2023-07-31T07:01:09;19.70;99.90
15217;DHT22;7711;46.634;14.318;2023-07-31T07:03:36;19.60;99.90
15217;DHT22;7711;46.634;14.318;2023-07-31T07:06:03;19.60;99.90
15217;DHT22;7711;46.634;14.318;2023-07-31T07:08:30;19.60;99.90
15217;DHT22;7711;46.634;14.318;2023-07-31T07:10:58;19.40;99.90
15217;DHT22;7711;46.634;14.318;2023-07-31T07:13:25;19.50;99.90
15217;DHT22;7711;46.634;14.318;2023-07-31T07:15:52;19.60;99.90
15217;DHT22;7711;46.634;14.318;2023-07-31T07:18:19;19.40;99.90
15217;DHT22;7711;46.634;14.318;2023-07-31T07:20:47;19.30;99.90
15217;DHT22;7711;46.634;14.318;2023-07-31T07:23:14;19.40;99.90
15217;DHT22;7711;46.634;14.318;2023-07-31T07:25:42;19.50;99.90
15217;DHT22;7711;46.634;14.318;2023-07-31T07:28:10;19.40;99.90
15217;DHT22;7711;46.634;14.318;2023-07-31T07:30:37;19.50;99.90
15217;DHT22;7711;46.634;14.318;2023-07-31T07:33:04;19.20;99.90
15217;DHT22;7711;46.634;14.318;2023-07-31T07:35:33;19.50;99.90
15217;DHT22;7711;46.634;14.318;2023-07-31T07:38:00;19.60;99.90
15217;DHT22;7711;46.634;14.318;2023-07-31T07:40:27;19.70;99.90
15217;DHT22;7711;46.634;14.318;2023-07-31T07:42:54;19.70;99.90
15217;DHT22;7711;46.634;14.318;2023-07-31T07:45:22;19.60;99.90
15217;DHT22;7711;46.634;14.318;2023-07-31T07:47:49;19.50;99.90
15217;DHT22;7711;46.634;14.318;2023-07-31T07:50:16;19.80;99.90
15217;DHT22;7711;46.634;14.318;2023-07-31T07:52:43;20.10;99.90
15217;DHT22;7711;46.634;14.318;2023-07-31T07:55:10;20.50;99.90
15217;DHT22;7711;46.634;14.318;2023-07-31T07:57:37;20.40;99.90
15217;DHT22;7711;46.634;14.318;2023-07-31T08:00:05;20.70;99.90
15217;DHT22;7711;46.634;14.318;2023-07-31T08:02:34;20.90;99.90
15217;DHT22;7711;46.634;14.318;2023-07-31T08:05:01;21.00;99.90
15217;DHT22;7711;46.634;14.318;2023-07-31T08:07:27;20.80;99.90
15217;DHT22;7711;46.634;14.318;2023-07-31T08:09:54;20.70;99.90
15217;DHT22;7711;46.634;14.318;2023-07-31T08:12:21;20.80;99.90
15217;DHT22;7711;46.634;14.318;2023-07-31T08:14:48;21.00;99.90
15217;DHT22;7711;46.634;14.318;2023-07-31T08:17:15;20.80;99.90
15217;DHT22;7711;46.634;14.318;2023-07-31T08:19:43;20.60;99.90
15217;DHT22;7711;46.634;14.318;2023-07-31T08:22:11;20.30;99.90
15217;DHT22;7711;46.634;14.318;2023-07-31T08:24:38;20.20;99.90
15217;DHT22;7711;46.634;14.318;2023-07-31T08:27:06;20.30;99.90
15217;DHT22;7711;46.634;14.318;2023-07-31T08:29:33;20.70;99.90
15217;DHT22;7711;46.634;14.318;2023-07-31T08:32:00;20.40;99.90
15217;DHT22;7711;46.634;14.318;2023-07-31T08:34:27;20.60;99.90
15217;DHT22;7711;46.634;14.318;2023-07-31T08:36:55;20.70;99.90
15217;DHT22;7711;46.634;14.318;2023-07-31T08:39:22;20.60;99.90
15217;DHT22;7711;46.634;14.318;2023-07-31T08:41:49;20.70;99.90
15217;DHT22;7711;46.634;14.318;2023-07-31T08:44:17;21.20;99.90
15217;DHT22;7711;46.634;14.318;2023-07-31T08:46:45;21.70;99.90
15217;DHT22;7711;46.634;14.318;2023-07-31T08:49:13;21.70;99.90
15217;DHT22;7711;46.634;14.318;2023-07-31T08:51:41;21.70;99.90
15217;DHT22;7711;46.634;14.318;2023-07-31T08:54:09;21.60;99.90
15217;DHT22;7711;46.634;14.318;2023-07-31T08:56:36;21.50;99.90
15217;DHT22;7711;46.634;14.318;2023-07-31T08:59:04;22.00;99.90
15217;DHT22;7711;46.634;14.318;2023-07-31T09:01:35;22.20;99.90
15217;DHT22;7711;46.634;14.318;2023-07-31T09:04:04;22.30;99.90
15217;DHT22;7711;46.634;14.318;2023-07-31T09:06:32;22.50;99.90
15217;DHT22;7711;46.634;14.318;2023-07-31T09:08:59;22.70;99.90
15217;DHT22;7711;46.634;14.318;2023-07-31T09:11:28;23.10;99.90
15217;DHT22;7711;46.634;14.318;2023-07-31T09:13:55;23.00;99.90
15217;DHT22;7711;46.634;14.318;2023-07-31T09:16:27;23.10;99.90
15217;DHT22;7711;46.634;14.318;2023-07-31T09:18:56;23.20;99.90
15217;DHT22;7711;46.634;14.318;2023-07-31T09:21:24;23.80;99.90
15217;DHT22;7711;46.634;14.318;2023-07-31T09:23:53;24.00;99.90
15217;DHT22;7711;46.634;14.318;2023-07-31T09:26:32;24.20;99.90
15217;DHT22;7711;46.634;14.318;2023-07-31T09:28:59;24.00;99.90
15217;DHT22;7711;46.634;14.318;2023-07-31T09:31:33;24.20;99.90
15217;DHT22;7711;46.634;14.318;2023-07-31T09:34:04;24.40;99.90
15217;DHT22;7711;46.634;14.318;2023-07-31T09:36:31;24.30;99.90
15217;DHT22;7711;46.634;14.318;2023-07-31T09:39:02;24.20;99.90
15217;DHT22;7711;46.634;14.318;2023-07-31T09:41:31;24.00;99.90
15217;DHT22;7711;46.634;14.318;2023-07-31T09:43:58;23.80;99.90
15217;DHT22;7711;46.634;14.318;2023-07-31T09:46:27;23.90;99.90
15217;DHT22;7711;46.634;14.318;2023-07-31T09:49:06;24.20;99.90
15217;DHT22;7711;46.634;14.318;2023-07-31T09:51:35;24.10;99.90
15217;DHT22;7711;46.634;14.318;2023-07-31T09:54:10;24.40;99.90
15217;DHT22;7711;46.634;14.318;2023-07-31T09:56:42;23.80;99.90
15217;DHT22;7711;46.634;14.318;2023-07-31T09:59:11;23.70;99.90
15217;DHT22;7711;46.634;14.318;2023-07-31T10:01:40;24.20;99.90
15217;DHT22;7711;46.634;14.318;2023-07-31T10:04:08;24.50;99.90
15217;DHT22;7711;46.634;14.318;2023-07-31T10:06:36;24.90;99.90
15217;DHT22;7711;46.634;14.318;2023-07-31T10:09:06;24.80;99.90
15217;DHT22;7711;46.634;14.318;2023-07-31T10:11:35;24.80;99.90
15217;DHT22;7711;46.634;14.318;2023-07-31T10:14:07;25.00;99.90
15217;DHT22;7711;46.634;14.318;2023-07-31T10:16:37;25.10;99.90
15217;DHT22;7711;46.634;14.318;2023-07-31T10:19:05;25.30;99.90
15217;DHT22;7711;46.634;14.318;2023-07-31T10:21:34;25.60;99.90
15217;DHT22;7711;46.634;14.318;2023-07-31T10:24:04;25.50;99.90
15217;DHT22;7711;46.634;14.318;2023-07-31T10:26:31;25.20;99.90
15217;DHT22;7711;46.634;14.318;2023-07-31T10:28:59;25.80;99.90
15217;DHT22;7711;46.634;14.318;2023-07-31T10:31:28;26.00;99.90
15217;DHT22;7711;46.634;14.318;2023-07-31T10:33:57;26.30;99.90
15217;DHT22;7711;46.634;14.318;2023-07-31T10:36:26;26.50;99.90
15217;DHT22;7711;46.634;14.318;2023-07-31T10:38:56;26.30;99.90
15217;DHT22;7711;46.634;14.318;2023-07-31T10:41:28;26.40;99.90
15217;DHT22;7711;46.634;14.318;2023-07-31T10:43:58;25.80;99.90
15217;DHT22;7711;46.634;14.318;2023-07-31T10:46:29;25.30;99.90
15217;DHT22;7711;46.634;14.318;2023-07-31T10:49:00;25.40;99.90
15217;DHT22;7711;46.634;14.318;2023-07-31T10:51:33;25.60;99.90
15217;DHT22;7711;46.634;14.318;2023-07-31T10:54:13;25.80;99.90
15217;DHT22;7711;46.634;14.318;2023-07-31T10:56:44;25.80;99.90
15217;DHT22;7711;46.634;14.318;2023-07-31T10:59:11;25.70;99.90
15217;DHT22;7711;46.634;14.318;2023-07-31T11:01:53;25.70;99.90
15217;DHT22;7711;46.634;14.318;2023-07-31T11:04:23;26.00;99.90
15217;DHT22;7711;46.634;14.318;2023-07-31T11:06:56;25.90;99.90
15217;DHT22;7711;46.634;14.318;2023-07-31T11:09:27;26.30;99.90
15217;DHT22;7711;46.634;14.318;2023-07-31T11:11:54;26.10;99.90
15217;DHT22;7711;46.634;14.318;2023-07-31T11:14:22;25.80;99.90
15217;DHT22;7711;46.634;14.318;2023-07-31T11:16:50;25.90;99.90
15217;DHT22;7711;46.634;14.318;2023-07-31T11:19:22;25.30;99.90
15217;DHT22;7711;46.634;14.318;2023-07-31T11:21:50;25.40;99.90
15217;DHT22;7711;46.634;14.318;2023-07-31T11:24:18;25.40;99.90
15217;DHT22;7711;46.634;14.318;2023-07-31T11:26:49;25.60;99.90
15217;DHT22;7711;46.634;14.318;2023-07-31T11:29:17;25.90;99.90
15217;DHT22;7711;46.634;14.318;2023-07-31T11:31:44;26.20;99.90
15217;DHT22;7711;46.634;14.318;2023-07-31T11:34:12;26.30;99.90
15217;DHT22;7711;46.634;14.318;2023-07-31T11:36:40;26.50;99.90
15217;DHT22;7711;46.634;14.318;2023-07-31T11:39:08;26.60;99.90
15217;DHT22;7711;46.634;14.318;2023-07-31T11:41:35;27.00;99.90
15217;DHT22;7711;46.634;14.318;2023-07-31T11:44:02;27.50;99.90
15217;DHT22;7711;46.634;14.318;2023-07-31T11:46:30;27.90;99.90
15217;DHT22;7711;46.634;14.318;2023-07-31T11:48:59;28.20;99.90
15217;DHT22;7711;46.634;14.318;2023-07-31T11:51:27;28.50;99.90
15217;DHT22;7711;46.634;14.318;2023-07-31T11:53:59;28.50;99.90
15217;DHT22;7711;46.634;14.318;2023-07-31T11:56:27;27.50;99.90
15217;DHT22;7711;46.634;14.318;2023-07-31T11:58:58;26.90;99.90
15217;DHT22;7711;46.634;14.318;2023-07-31T12:01:26;26.30;99.90
15217;DHT22;7711;46.634;14.318;2023-07-31T12:03:54;26.40;99.90
15217;DHT22;7711;46.634;14.318;2023-07-31T12:06:21;26.70;99.90
15217;DHT22;7711;46.634;14.318;2023-07-31T12:08:48;27.40;99.90
15217;DHT22;7711;46.634;14.318;2023-07-31T12:11:17;27.50;99.90
15217;DHT22;7711;46.634;14.318;2023-07-31T12:13:44;27.60;99.90
15217;DHT22;7711;46.634;14.318;2023-07-31T12:16:11;27.50;99.90
15217;DHT22;7711;46.634;14.318;2023-07-31T12:18:39;27.70;99.90
15217;DHT22;7711;46.634;14.318;2023-07-31T12:21:07;27.50;99.90
15217;DHT22;7711;46.634;14.318;2023-07-31T12:23:36;27.50;99.90
15217;DHT22;7711;46.634;14.318;2023-07-31T12:26:05;27.50;99.90
15217;DHT22;7711;46.634;14.318;2023-07-31T12:28:37;28.00;99.90
15217;DHT22;7711;46.634;14.318;2023-07-31T12:31:05;28.10;99.90
15217;DHT22;7711;46.634;14.318;2023-07-31T12:33:32;28.50;99.90
15217;DHT22;7711;46.634;14.318;2023-07-31T12:36:02;27.70;99.90
15217;DHT22;7711;46.634;14.318;2023-07-31T12:38:29;28.10;99.90
15217;DHT22;7711;46.634;14.318;2023-07-31T12:40:56;28.10;99.90
15217;DHT22;7711;46.634;14.318;2023-07-31T12:43:23;28.10;99.90
15217;DHT22;7711;46.634;14.318;2023-07-31T12:45:54;28.10;99.90
15217;DHT22;7711;46.634;14.318;2023-07-31T12:48:21;28.10;99.90
15217;DHT22;7711;46.634;14.318;2023-07-31T12:50:51;28.50;99.90
15217;DHT22;7711;46.634;14.318;2023-07-31T12:53:18;29.20;99.90
15217;DHT22;7711;46.634;14.318;2023-07-31T12:55:45;28.80;99.90
15217;DHT22;7711;46.634;14.318;2023-07-31T12:58:12;29.00;99.90
15217;DHT22;7711;46.634;14.318;2023-07-31T13:00:39;29.00;99.90
15217;DHT22;7711;46.634;14.318;2023-07-31T13:03:07;28.90;99.90
15217;DHT22;7711;46.634;14.318;2023-07-31T13:05:34;28.70;99.90
15217;DHT22;7711;46.634;14.318;2023-07-31T13:08:01;29.00;99.90
15217;DHT22;7711;46.634;14.318;2023-07-31T13:10:28;28.90;99.90
15217;DHT22;7711;46.634;14.318;2023-07-31T13:12:56;28.60;99.90
15217;DHT22;7711;46.634;14.318;2023-07-31T13:15:23;28.80;99.90
15217;DHT22;7711;46.634;14.318;2023-07-31T13:17:50;28.40;99.90
15217;DHT22;7711;46.634;14.318;2023-07-31T13:20:18;28.00;99.90
15217;DHT22;7711;46.634;14.318;2023-07-31T13:22:45;27.90;99.90
15217;DHT22;7711;46.634;14.318;2023-07-31T13:25:12;28.00;99.90
15217;DHT22;7711;46.634;14.318;2023-07-31T13:27:39;27.90;99.90
15217;DHT22;7711;46.634;14.318;2023-07-31T13:30:07;28.40;99.90
15217;DHT22;7711;46.634;14.318;2023-07-31T13:32:34;28.70;99.90
15217;DHT22;7711;46.634;14.318;2023-07-31T13:35:04;29.30;99.90
15217;DHT22;7711;46.634;14.318;2023-07-31T13:37:33;29.20;99.90
15217;DHT22;7711;46.634;14.318;2023-07-31T13:40:00;28.90;99.90
15217;DHT22;7711;46.634;14.318;2023-07-31T13:42:27;29.60;99.90
15217;DHT22;7711;46.634;14.318;2023-07-31T13:44:54;29.30;99.90
15217;DHT22;7711;46.634;14.318;2023-07-31T13:47:22;29.10;99.90
15217;DHT22;7711;46.634;14.318;2023-07-31T13:49:49;29.80;99.90
15217;DHT22;7711;46.634;14.318;2023-07-31T13:52:16;30.50;99.90
15217;DHT22;7711;46.634;14.318;2023-07-31T13:54:44;30.90;99.90
15217;DHT22;7711;46.634;14.318;2023-07-31T13:57:11;31.60;99.90
15217;DHT22;7711;46.634;14.318;2023-07-31T13:59:38;32.90;99.90
15217;DHT22;7711;46.634;14.318;2023-07-31T14:02:05;33.00;99.90
15217;DHT22;7711;46.634;14.318;2023-07-31T14:04:32;32.80;99.90
15217;DHT22;7711;46.634;14.318;2023-07-31T14:06:59;32.10;99.90
15217;DHT22;7711;46.634;14.318;2023-07-31T14:09:26;31.50;99.90
15217;DHT22;7711;46.634;14.318;2023-07-31T14:11:55;30.60;99.90
15217;DHT22;7711;46.634;14.318;2023-07-31T14:14:22;29.90;99.90
15217;DHT22;7711;46.634;14.318;2023-07-31T14:16:49;29.60;99.90
15217;DHT22;7711;46.634;14.318;2023-07-31T14:19:16;29.10;99.90
15217;DHT22;7711;46.634;14.318;2023-07-31T14:21:43;28.80;99.90
15217;DHT22;7711;46.634;14.318;2023-07-31T14:24:10;28.90;99.90
15217;DHT22;7711;46.634;14.318;2023-07-31T14:26:36;28.90;99.90
15217;DHT22;7711;46.634;14.318;2023-07-31T14:29:05;29.00;99.90
15217;DHT22;7711;46.634;14.318;2023-07-31T14:31:32;29.50;99.90
15217;DHT22;7711;46.634;14.318;2023-07-31T14:33:58;31.10;99.90
15217;DHT22;7711;46.634;14.318;2023-07-31T14:36:25;32.60;99.90
15217;DHT22;7711;46.634;14.318;2023-07-31T14:38:52;33.00;99.90
15217;DHT22;7711;46.634;14.318;2023-07-31T14:41:19;31.30;98.50
15217;DHT22;7711;46.634;14.318;2023-07-31T14:43:46;30.10;99.90
15217;DHT22;7711;46.634;14.318;2023-07-31T14:46:14;28.80;99.90
15217;DHT22;7711;46.634;14.318;2023-07-31T14:48:41;28.20;99.90
15217;DHT22;7711;46.634;14.318;2023-07-31T14:51:08;27.70;99.90
15217;DHT22;7711;46.634;14.318;2023-07-31T14:53:35;27.80;99.90
15217;DHT22;7711;46.634;14.318;2023-07-31T14:56:02;28.50;99.90
15217;DHT22;7711;46.634;14.318;2023-07-31T14:58:29;28.10;99.90
15217;DHT22;7711;46.634;14.318;2023-07-31T15:00:56;28.10;99.90
15217;DHT22;7711;46.634;14.318;2023-07-31T15:03:24;29.90;99.90
15217;DHT22;7711;46.634;14.318;2023-07-31T15:05:51;30.30;99.90
15217;DHT22;7711;46.634;14.318;2023-07-31T15:08:18;31.20;99.90
15217;DHT22;7711;46.634;14.318;2023-07-31T15:10:45;31.00;99.90
15217;DHT22;7711;46.634;14.318;2023-07-31T15:13:12;31.70;99.90
15217;DHT22;7711;46.634;14.318;2023-07-31T15:15:39;32.90;99.90
15217;DHT22;7711;46.634;14.318;2023-07-31T15:18:06;32.80;97.20
15217;DHT22;7711;46.634;14.318;2023-07-31T15:20:35;32.40;98.50
15217;DHT22;7711;46.634;14.318;2023-07-31T15:23:01;31.50;98.50
15217;DHT22;7711;46.634;14.318;2023-07-31T15:25:29;32.60;97.60
15217;DHT22;7711;46.634;14.318;2023-07-31T15:27:55;32.20;95.80
15217;DHT22;7711;46.634;14.318;2023-07-31T15:30:24;32.30;98.30
15217;DHT22;7711;46.634;14.318;2023-07-31T15:32:51;32.40;97.10
15217;DHT22;7711;46.634;14.318;2023-07-31T15:35:18;32.60;97.70
15217;DHT22;7711;46.634;14.318;2023-07-31T15:37:46;33.10;94.40